createdAt,value
2019-05-02T00:01:32.256Z,56.94
2019-05-02T00:06:38.029Z,56.91
2019-05-02T00:11:40.471Z,57.22
2019-05-02T00:16:45.229Z,56.85
2019-05-02T00:21:47.533Z,56.72
2019-05-02T00:26:50.032Z,56.42
2019-05-02T00:31:52.549Z,56.93
2019-05-02T00:36:55.210Z,56.65
2019-05-02T00:41:57.977Z,56.35
2019-05-02T00:47:31.168Z,56.16
2019-05-02T00:52:36.693Z,55.98
2019-05-02T00:57:38.140Z,56.60
2019-05-02T01:02:46.767Z,56.59
2019-05-02T01:07:49.050Z,56.57
2019-05-02T01:12:51.296Z,56.78
2019-05-02T01:17:53.589Z,57.53
2019-05-02T01:22:55.749Z,58.06
2019-05-02T01:28:30.251Z,58.07
2019-05-02T01:33:41.660Z,57.98
2019-05-02T01:38:49.276Z,58.08
2019-05-02T01:43:55.078Z,58.76
2019-05-02T01:48:56.356Z,58.78
2019-05-02T01:53:58.525Z,58.89
2019-05-02T01:59:00.922Z,60.61
2019-05-02T02:04:03.254Z,60.47
2019-05-02T02:09:08.206Z,60.56
2019-05-02T02:14:12.856Z,60.73
2019-05-02T02:19:25.904Z,60.63
2019-05-02T02:24:32.936Z,62.56
2019-05-02T02:29:39.011Z,64.93
2019-05-02T02:34:39.179Z,65.76
2019-05-02T02:39:41.246Z,65.95
2019-05-02T02:44:50.109Z,65.81
2019-05-02T02:49:55.914Z,65.60
2019-05-02T02:54:56.874Z,64.81
2019-05-02T03:00:07.284Z,65.99
2019-05-02T03:05:04.349Z,65.56
2019-05-02T03:10:08.486Z,67.77
2019-05-02T03:15:14.522Z,67.21
2019-05-02T03:20:16.830Z,67.66
2019-05-02T03:25:25.138Z,68.57
2019-05-02T03:30:32.985Z,69.85
2019-05-02T03:35:41.835Z,69.10
2019-05-02T03:40:32.087Z,69.78
2019-05-02T03:45:39.989Z,71.03
2019-05-02T03:50:39.838Z,69.51
2019-05-02T03:55:45.761Z,70.01
2019-05-02T04:00:48.375Z,69.65
2019-05-02T04:05:51.111Z,69.53
2019-05-02T04:11:20.628Z,69.29
2019-05-02T04:16:27.790Z,69.84
2019-05-02T04:21:30.785Z,69.40
2019-05-02T04:26:33.301Z,69.26
2019-05-02T04:31:35.477Z,71.64
2019-05-02T04:36:37.882Z,68.63
2019-05-02T04:41:42.455Z,68.60
2019-05-02T04:46:44.498Z,69.32
2019-05-02T04:51:50.760Z,68.28
2019-05-02T04:56:55.138Z,67.81
2019-05-02T05:02:08.692Z,67.87
2019-05-02T05:07:10.683Z,67.99
2019-05-02T05:12:57.158Z,68.26
2019-05-02T05:18:10.526Z,68.35
2019-05-02T05:23:33.409Z,68.31
2019-05-02T05:28:48.834Z,68.92
2019-05-02T05:34:32.439Z,67.83
2019-05-02T05:40:01.674Z,68.12
2019-05-02T05:46:09.826Z,68.37
2019-05-02T05:51:27.896Z,68.28
2019-05-02T05:56:50.105Z,68.01
2019-05-02T06:02:05.449Z,68.46
2019-05-02T06:07:39.438Z,67.86
2019-05-02T06:12:45.705Z,67.35
2019-05-02T06:18:05.026Z,67.09
2019-05-02T06:23:20.066Z,67.07
2019-05-02T06:28:26.248Z,66.45
2019-05-02T06:33:32.374Z,65.88
2019-05-02T06:38:52.273Z,65.59
2019-05-02T06:44:00.549Z,65.45
2019-05-02T06:49:10.963Z,66.00
2019-05-02T06:54:35.603Z,65.70
2019-05-02T06:59:56.504Z,65.66
2019-05-02T07:05:05.443Z,66.04
2019-05-02T07:10:26.736Z,67.29
2019-05-02T07:15:43.914Z,67.66
2019-05-02T07:20:50.071Z,67.86
2019-05-02T07:25:54.832Z,66.41
2019-05-02T07:31:06.605Z,67.51
2019-05-02T07:36:19.197Z,66.94
2019-05-02T07:41:29.024Z,66.45
2019-05-02T07:46:35.395Z,65.30
2019-05-02T07:51:58.968Z,64.33
2019-05-02T07:57:18.309Z,64.97
2019-05-02T08:02:27.533Z,64.22
2019-05-02T08:07:36.916Z,63.78
2019-05-02T08:12:45.335Z,63.20
2019-05-02T08:18:03.448Z,62.21
2019-05-02T08:23:26.019Z,61.98
2019-05-02T08:28:39.070Z,60.76
2019-05-02T08:33:51.193Z,60.51
2019-05-02T08:39:05.359Z,61.15
2019-05-02T08:44:16.820Z,59.24
2019-05-02T08:49:21.977Z,58.76
2019-05-02T08:54:36.013Z,57.21
2019-05-02T08:59:50.658Z,58.35
2019-05-02T09:05:06.537Z,57.56
2019-05-02T09:10:16.553Z,56.65
2019-05-02T09:15:22.304Z,57.47
2019-05-02T09:20:35.282Z,59.36
2019-05-02T09:25:47.435Z,58.69
2019-05-02T09:31:06.355Z,57.56
2019-05-02T09:36:11.903Z,55.38
2019-05-02T09:41:20.153Z,56.83
2019-05-02T09:46:53.100Z,57.42
2019-05-02T09:52:12.454Z,55.59
2019-05-02T09:57:22.634Z,54.27
2019-05-02T10:02:41.955Z,54.95
2019-05-02T10:07:52.614Z,54.56
2019-05-02T10:13:25.616Z,53.97
2019-05-02T10:18:33.003Z,52.39
2019-05-02T10:23:53.727Z,53.50
2019-05-02T10:29:12.770Z,52.61
2019-05-02T10:34:36.358Z,50.93
2019-05-02T10:39:47.439Z,50.17
2019-05-02T10:45:25.446Z,50.58
2019-05-02T10:50:42.318Z,49.71
2019-05-02T10:56:05.931Z,49.31
2019-05-02T11:01:16.742Z,48.37
2019-05-02T11:12:02.522Z,48.90
2019-05-02T11:17:32.364Z,49.00
2019-05-02T11:22:48.399Z,47.06
2019-05-02T11:28:02.933Z,45.66
2019-05-02T11:33:49.043Z,46.14
2019-05-02T11:39:15.741Z,45.74
2019-05-02T11:44:38.384Z,46.04
2019-05-02T11:49:53.958Z,45.41
2019-05-02T11:55:24.737Z,47.25
2019-05-02T12:00:32.228Z,44.61
2019-05-02T12:05:42.743Z,44.37
2019-05-02T12:11:08.341Z,45.16
2019-05-02T12:16:22.991Z,43.59
2019-05-02T12:21:41.903Z,44.19
2019-05-02T12:26:53.892Z,44.84
2019-05-02T12:32:04.168Z,44.00
2019-05-02T12:37:17.340Z,41.99
2019-05-02T12:42:36.016Z,43.71
2019-05-02T12:47:53.032Z,43.68
2019-05-02T12:53:15.640Z,43.34
2019-05-02T12:58:24.423Z,43.11
2019-05-02T13:04:04.441Z,42.72
2019-05-02T13:09:12.930Z,43.21
2019-05-02T13:14:26.003Z,43.59
2019-05-02T13:19:55.827Z,42.81
2019-05-02T13:25:03.958Z,43.88
2019-05-02T13:30:23.526Z,43.18
2019-05-02T13:35:47.348Z,42.27
2019-05-02T13:41:03.565Z,42.72
2019-05-02T13:46:42.542Z,42.01
2019-05-02T13:51:57.889Z,42.33
2019-05-02T13:57:05.928Z,42.45
2019-05-02T14:02:37.841Z,40.78
2019-05-02T14:08:14.154Z,40.68
2019-05-02T14:13:33.873Z,39.47
2019-05-02T14:18:43.962Z,39.62
2019-05-02T14:24:05.774Z,39.11
2019-05-02T14:29:32.852Z,38.82
2019-05-02T14:35:03.862Z,37.83
2019-05-02T14:40:31.929Z,37.70
2019-05-02T14:46:08.611Z,38.21
2019-05-02T14:51:41.845Z,35.99
2019-05-02T14:57:22.927Z,35.69
2019-05-02T15:02:51.990Z,36.63
2019-05-02T15:08:24.753Z,37.21
2019-05-02T15:14:04.731Z,36.16
2019-05-02T15:19:22.956Z,35.51
2019-05-02T15:24:57.626Z,35.65
2019-05-02T15:30:44.824Z,34.30
2019-05-02T15:36:14.519Z,35.47
2019-05-02T15:47:17.534Z,36.29
2019-05-02T15:52:49.244Z,37.39
2019-05-02T15:58:09.382Z,38.34
2019-05-02T16:03:19.889Z,38.62
2019-05-02T16:08:37.557Z,38.93
2019-05-02T16:13:55.802Z,39.00
2019-05-02T16:19:28.562Z,38.94
2019-05-02T16:24:36.937Z,39.28
2019-05-02T16:29:58.263Z,39.45
2019-05-02T16:35:22.283Z,39.58
2019-05-02T16:40:37.489Z,39.80
2019-05-02T16:45:56.807Z,39.54
2019-05-02T16:51:27.679Z,39.75
2019-05-02T16:56:31.614Z,39.69
2019-05-02T17:01:44.545Z,39.70
2019-05-02T17:07:02.182Z,39.23
2019-05-02T17:12:20.659Z,38.89
2019-05-02T17:17:38.914Z,38.81
2019-05-02T17:22:51.029Z,38.46
2019-05-02T17:28:06.991Z,38.64
2019-05-02T17:33:17.345Z,37.42
2019-05-02T17:38:30.523Z,36.19
2019-05-02T17:43:59.159Z,35.81
2019-05-02T17:49:11.886Z,35.41
2019-05-02T17:54:26.772Z,35.44
2019-05-02T17:59:37.734Z,35.86
2019-05-02T18:04:46.512Z,36.41
2019-05-02T18:09:57.319Z,35.09
2019-05-02T18:15:07.586Z,35.30
2019-05-02T18:20:12.416Z,34.84
2019-05-02T18:25:31.408Z,34.97
2019-05-02T18:31:05.744Z,34.69
2019-05-02T18:36:34.437Z,34.77
2019-05-02T18:42:00.789Z,35.72
2019-05-02T18:47:12.461Z,34.77
2019-05-02T18:52:23.763Z,34.79
2019-05-02T18:57:29.384Z,35.47
2019-05-02T19:02:35.409Z,35.81
2019-05-02T19:07:36.658Z,36.58
2019-05-02T19:13:00.979Z,37.36
2019-05-02T19:18:04.606Z,38.26
2019-05-02T19:23:22.489Z,38.64
2019-05-02T19:28:55.845Z,39.39
2019-05-02T19:34:08.438Z,40.40
2019-05-02T19:39:23.953Z,40.65
2019-05-02T19:44:42.169Z,43.89
2019-05-02T19:49:52.422Z,47.55
2019-05-02T19:55:01.393Z,49.80
2019-05-02T20:00:09.326Z,51.66
2019-05-02T20:05:16.483Z,53.01
2019-05-02T20:10:17.894Z,54.42
2019-05-02T20:16:02.532Z,55.07
2019-05-02T20:21:33.559Z,55.19
2019-05-02T20:26:36.857Z,56.75
2019-05-02T20:31:39.827Z,56.00
2019-05-02T20:36:42.575Z,56.02
2019-05-02T20:41:47.159Z,56.34
2019-05-02T20:46:51.566Z,56.53
2019-05-02T20:51:53.751Z,56.45
2019-05-02T20:56:58.304Z,56.89
2019-05-02T21:02:01.744Z,56.34
2019-05-02T21:07:14.928Z,56.28
2019-05-02T21:12:17.124Z,56.06
2019-05-02T21:17:19.476Z,56.08
2019-05-02T21:22:26.215Z,55.82
2019-05-02T21:27:28.408Z,55.76
2019-05-02T21:32:32.154Z,58.25
2019-05-02T21:37:34.381Z,59.19
2019-05-02T21:42:37.036Z,60.60
2019-05-02T21:47:39.263Z,61.10
2019-05-02T21:53:03.917Z,60.84
2019-05-02T21:58:06.198Z,61.20
2019-05-02T22:03:09.362Z,61.15
2019-05-02T22:08:13.539Z,61.63
2019-05-02T22:13:15.740Z,61.88
2019-05-02T22:18:18.097Z,62.14
2019-05-02T22:23:20.338Z,61.80
2019-05-02T22:28:22.524Z,61.96
2019-05-02T22:33:24.766Z,61.03
2019-05-02T22:38:48.393Z,60.64
2019-05-02T22:43:50.535Z,60.84
2019-05-02T22:48:52.980Z,60.66
2019-05-02T22:53:55.239Z,60.04
2019-05-02T22:58:57.328Z,59.79
2019-05-02T23:03:59.511Z,59.93
2019-05-02T23:09:02.018Z,60.29
2019-05-02T23:14:05.176Z,60.73
2019-05-02T23:19:07.318Z,60.88
2019-05-02T23:24:15.448Z,60.81
2019-05-02T23:29:18.103Z,61.72
2019-05-02T23:34:23.380Z,61.38
2019-05-02T23:39:24.843Z,61.66
2019-05-02T23:44:26.988Z,62.71
2019-05-02T23:49:29.231Z,62.89
2019-05-02T23:54:32.426Z,62.60
2019-05-02T23:59:34.753Z,62.51
